sensor_id;sensor_type;location;lat;lon;timestamp;P1;durP1;ratioP1;P2;durP2;ratioP2
16127;SDS011;8168;49.036;7.690;2023-03-23T00:00:17;0.90;;;0.90;;
16127;SDS011;8168;49.036;7.690;2023-03-23T00:02:49;0.80;;;0.80;;
16127;SDS011;8168;49.036;7.690;2023-03-23T00:05:19;1.23;;;1.00;;
16127;SDS011;8168;49.036;7.690;2023-03-23T00:07:50;0.60;;;0.60;;
16127;SDS011;8168;49.036;7.690;2023-03-23T00:10:22;4.03;;;1.20;;
16127;SDS011;8168;49.036;7.690;2023-03-23T00:12:54;0.77;;;0.77;;
16127;SDS011;8168;49.036;7.690;2023-03-23T00:15:26;2.60;;;0.80;;
16127;SDS011;8168;49.036;7.690;2023-03-23T00:18:00;0.80;;;0.73;;
16127;SDS011;8168;49.036;7.690;2023-03-23T00:20:34;1.33;;;1.03;;
16127;SDS011;8168;49.036;7.690;2023-03-23T00:23:10;0.80;;;0.80;;
16127;SDS011;8168;49.036;7.690;2023-03-23T00:25:41;0.63;;;0.63;;
16127;SDS011;8168;49.036;7.690;2023-03-23T00:28:11;1.10;;;1.00;;
16127;SDS011;8168;49.036;7.690;2023-03-23T00:30:42;1.63;;;0.77;;
16127;SDS011;8168;49.036;7.690;2023-03-23T00:33:14;1.67;;;0.90;;
16127;SDS011;8168;49.036;7.690;2023-03-23T00:35:46;0.73;;;0.73;;
16127;SDS011;8168;49.036;7.690;2023-03-23T00:38:17;1.00;;;0.90;;
16127;SDS011;8168;49.036;7.690;2023-03-23T00:40:52;1.10;;;0.90;;
16127;SDS011;8168;49.036;7.690;2023-03-23T00:43:24;2.00;;;1.10;;
16127;SDS011;8168;49.036;7.690;2023-03-23T00:45:55;1.23;;;0.90;;
16127;SDS011;8168;49.036;7.690;2023-03-23T00:48:27;0.97;;;0.80;;
16127;SDS011;8168;49.036;7.690;2023-03-23T00:50:59;1.13;;;0.80;;
16127;SDS011;8168;49.036;7.690;2023-03-23T00:53:34;0.87;;;0.87;;
16127;SDS011;8168;49.036;7.690;2023-03-23T00:56:05;0.87;;;0.80;;
16127;SDS011;8168;49.036;7.690;2023-03-23T00:58:36;1.90;;;0.80;;
16127;SDS011;8168;49.036;7.690;2023-03-23T01:01:07;1.57;;;1.20;;
16127;SDS011;8168;49.036;7.690;2023-03-23T01:03:38;1.83;;;0.90;;
16127;SDS011;8168;49.036;7.690;2023-03-23T01:06:10;0.70;;;0.70;;
16127;SDS011;8168;49.036;7.690;2023-03-23T01:08:44;1.20;;;1.00;;
16127;SDS011;8168;49.036;7.690;2023-03-23T01:11:19;0.87;;;0.63;;
16127;SDS011;8168;49.036;7.690;2023-03-23T01:13:50;1.10;;;1.00;;
16127;SDS011;8168;49.036;7.690;2023-03-23T01:16:22;0.93;;;0.67;;
16127;SDS011;8168;49.036;7.690;2023-03-23T01:18:53;0.80;;;0.80;;
16127;SDS011;8168;49.036;7.690;2023-03-23T01:21:23;1.03;;;1.00;;
16127;SDS011;8168;49.036;7.690;2023-03-23T01:23:55;0.90;;;0.90;;
16127;SDS011;8168;49.036;7.690;2023-03-23T01:26:26;0.90;;;0.60;;
16127;SDS011;8168;49.036;7.690;2023-03-23T01:28:58;1.17;;;0.93;;
16127;SDS011;8168;49.036;7.690;2023-03-23T01:31:29;0.97;;;0.90;;
16127;SDS011;8168;49.036;7.690;2023-03-23T01:34:00;2.63;;;1.10;;
16127;SDS011;8168;49.036;7.690;2023-03-23T01:36:31;1.23;;;0.73;;
16127;SDS011;8168;49.036;7.690;2023-03-23T01:39:04;1.07;;;0.97;;
16127;SDS011;8168;49.036;7.690;2023-03-23T01:41:35;2.33;;;1.00;;
16127;SDS011;8168;49.036;7.690;2023-03-23T01:44:07;2.73;;;1.10;;
16127;SDS011;8168;49.036;7.690;2023-03-23T01:46:57;0.60;;;0.60;;
16127;SDS011;8168;49.036;7.690;2023-03-23T01:49:29;0.90;;;0.90;;
16127;SDS011;8168;49.036;7.690;2023-03-23T01:52:07;0.93;;;0.90;;
16127;SDS011;8168;49.036;7.690;2023-03-23T01:54:53;1.10;;;1.00;;
16127;SDS011;8168;49.036;7.690;2023-03-23T01:57:26;0.80;;;0.70;;
16127;SDS011;8168;49.036;7.690;2023-03-23T01:59:57;1.00;;;0.90;;
16127;SDS011;8168;49.036;7.690;2023-03-23T02:02:31;1.00;;;0.90;;
16127;SDS011;8168;49.036;7.690;2023-03-23T02:05:07;4.37;;;1.17;;
16127;SDS011;8168;49.036;7.690;2023-03-23T02:07:41;1.07;;;0.97;;
16127;SDS011;8168;49.036;7.690;2023-03-23T02:10:14;1.23;;;0.90;;
16127;SDS011;8168;49.036;7.690;2023-03-23T02:12:44;3.90;;;1.10;;
16127;SDS011;8168;49.036;7.690;2023-03-23T02:15:15;1.27;;;1.17;;
16127;SDS011;8168;49.036;7.690;2023-03-23T02:17:48;1.20;;;1.10;;
16127;SDS011;8168;49.036;7.690;2023-03-23T02:20:55;1.43;;;0.80;;
16127;SDS011;8168;49.036;7.690;2023-03-23T02:23:56;0.90;;;0.80;;
16127;SDS011;8168;49.036;7.690;2023-03-23T02:35:12;1.10;;;0.90;;
16127;SDS011;8168;49.036;7.690;2023-03-23T02:38:00;0.87;;;0.80;;
16127;SDS011;8168;49.036;7.690;2023-03-23T02:40:41;0.83;;;0.70;;
16127;SDS011;8168;49.036;7.690;2023-03-23T02:43:16;1.57;;;1.10;;
16127;SDS011;8168;49.036;7.690;2023-03-23T02:45:51;0.93;;;0.87;;
16127;SDS011;8168;49.036;7.690;2023-03-23T02:48:24;1.20;;;1.10;;
16127;SDS011;8168;49.036;7.690;2023-03-23T02:51:00;1.10;;;1.00;;
16127;SDS011;8168;49.036;7.690;2023-03-23T02:53:33;1.00;;;1.00;;
16127;SDS011;8168;49.036;7.690;2023-03-23T02:56:06;1.03;;;1.00;;
16127;SDS011;8168;49.036;7.690;2023-03-23T02:58:39;0.70;;;0.70;;
16127;SDS011;8168;49.036;7.690;2023-03-23T03:03:56;1.53;;;1.10;;
16127;SDS011;8168;49.036;7.690;2023-03-23T03:06:36;2.50;;;1.00;;
16127;SDS011;8168;49.036;7.690;2023-03-23T03:09:14;1.00;;;1.00;;
16127;SDS011;8168;49.036;7.690;2023-03-23T03:12:11;1.67;;;1.00;;
16127;SDS011;8168;49.036;7.690;2023-03-23T03:14:58;1.00;;;0.70;;
16127;SDS011;8168;49.036;7.690;2023-03-23T03:17:41;1.23;;;0.90;;
16127;SDS011;8168;49.036;7.690;2023-03-23T03:20:19;1.83;;;0.90;;
16127;SDS011;8168;49.036;7.690;2023-03-23T03:22:51;0.70;;;0.70;;
16127;SDS011;8168;49.036;7.690;2023-03-23T03:25:23;0.87;;;0.87;;
16127;SDS011;8168;49.036;7.690;2023-03-23T03:27:57;1.27;;;1.00;;
16127;SDS011;8168;49.036;7.690;2023-03-23T03:30:30;0.70;;;0.70;;
16127;SDS011;8168;49.036;7.690;2023-03-23T03:33:03;1.00;;;0.97;;
16127;SDS011;8168;49.036;7.690;2023-03-23T03:35:35;1.53;;;0.93;;
16127;SDS011;8168;49.036;7.690;2023-03-23T03:38:08;0.90;;;0.80;;
16127;SDS011;8168;49.036;7.690;2023-03-23T03:40:40;2.03;;;1.20;;
16127;SDS011;8168;49.036;7.690;2023-03-23T03:43:11;1.03;;;0.80;;
16127;SDS011;8168;49.036;7.690;2023-03-23T03:45:41;2.77;;;1.33;;
16127;SDS011;8168;49.036;7.690;2023-03-23T03:48:12;0.90;;;0.90;;
16127;SDS011;8168;49.036;7.690;2023-03-23T03:50:43;1.17;;;0.90;;
16127;SDS011;8168;49.036;7.690;2023-03-23T03:53:15;1.40;;;0.90;;
16127;SDS011;8168;49.036;7.690;2023-03-23T03:55:45;1.10;;;1.00;;
16127;SDS011;8168;49.036;7.690;2023-03-23T03:58:18;2.03;;;1.40;;
16127;SDS011;8168;49.036;7.690;2023-03-23T04:00:49;1.30;;;0.90;;
16127;SDS011;8168;49.036;7.690;2023-03-23T04:03:19;0.63;;;0.63;;
16127;SDS011;8168;49.036;7.690;2023-03-23T04:05:50;0.70;;;0.70;;
16127;SDS011;8168;49.036;7.690;2023-03-23T04:08:24;0.77;;;0.77;;
16127;SDS011;8168;49.036;7.690;2023-03-23T04:10:56;0.80;;;0.80;;
16127;SDS011;8168;49.036;7.690;2023-03-23T04:13:27;3.17;;;0.83;;
16127;SDS011;8168;49.036;7.690;2023-03-23T04:15:57;1.20;;;1.10;;
16127;SDS011;8168;49.036;7.690;2023-03-23T04:18:28;1.23;;;0.90;;
16127;SDS011;8168;49.036;7.690;2023-03-23T04:20:59;2.03;;;0.83;;
16127;SDS011;8168;49.036;7.690;2023-03-23T04:23:31;1.27;;;0.73;;
16127;SDS011;8168;49.036;7.690;2023-03-23T04:26:04;2.10;;;1.00;;
16127;SDS011;8168;49.036;7.690;2023-03-23T04:28:35;1.40;;;1.00;;
16127;SDS011;8168;49.036;7.690;2023-03-23T04:31:06;1.10;;;0.90;;
16127;SDS011;8168;49.036;7.690;2023-03-23T04:33:38;0.83;;;0.83;;
16127;SDS011;8168;49.036;7.690;2023-03-23T04:36:10;1.03;;;0.90;;
16127;SDS011;8168;49.036;7.690;2023-03-23T04:38:41;0.93;;;0.70;;
16127;SDS011;8168;49.036;7.690;2023-03-23T04:41:12;2.27;;;1.10;;
16127;SDS011;8168;49.036;7.690;2023-03-23T04:43:43;2.33;;;0.77;;
16127;SDS011;8168;49.036;7.690;2023-03-23T04:46:14;1.00;;;0.90;;
16127;SDS011;8168;49.036;7.690;2023-03-23T04:48:48;0.83;;;0.80;;
16127;SDS011;8168;49.036;7.690;2023-03-23T04:51:18;1.10;;;1.00;;
16127;SDS011;8168;49.036;7.690;2023-03-23T04:53:49;1.10;;;1.00;;
16127;SDS011;8168;49.036;7.690;2023-03-23T04:56:20;0.80;;;0.77;;
16127;SDS011;8168;49.036;7.690;2023-03-23T04:58:50;1.73;;;1.23;;
16127;SDS011;8168;49.036;7.690;2023-03-23T05:01:21;1.50;;;1.00;;
16127;SDS011;8168;49.036;7.690;2023-03-23T05:03:52;1.17;;;1.07;;
16127;SDS011;8168;49.036;7.690;2023-03-23T05:06:23;1.20;;;1.10;;
16127;SDS011;8168;49.036;7.690;2023-03-23T05:08:53;2.40;;;2.10;;
16127;SDS011;8168;49.036;7.690;2023-03-23T05:11:24;2.00;;;1.20;;
16127;SDS011;8168;49.036;7.690;2023-03-23T05:13:56;1.37;;;1.20;;
16127;SDS011;8168;49.036;7.690;2023-03-23T05:16:26;1.87;;;1.40;;
16127;SDS011;8168;49.036;7.690;2023-03-23T05:18:58;3.43;;;1.10;;
16127;SDS011;8168;49.036;7.690;2023-03-23T05:21:29;1.63;;;1.07;;
16127;SDS011;8168;49.036;7.690;2023-03-23T05:24:00;1.13;;;1.03;;
16127;SDS011;8168;49.036;7.690;2023-03-23T05:26:31;4.53;;;1.90;;
16127;SDS011;8168;49.036;7.690;2023-03-23T05:29:02;0.97;;;0.83;;
16127;SDS011;8168;49.036;7.690;2023-03-23T05:31:33;2.00;;;0.90;;
16127;SDS011;8168;49.036;7.690;2023-03-23T05:34:03;3.20;;;1.13;;
16127;SDS011;8168;49.036;7.690;2023-03-23T05:36:34;1.83;;;1.10;;
16127;SDS011;8168;49.036;7.690;2023-03-23T05:39:05;1.43;;;1.00;;
16127;SDS011;8168;49.036;7.690;2023-03-23T05:41:36;1.67;;;1.07;;
16127;SDS011;8168;49.036;7.690;2023-03-23T05:44:07;1.30;;;1.00;;
16127;SDS011;8168;49.036;7.690;2023-03-23T05:46:38;1.00;;;0.97;;
16127;SDS011;8168;49.036;7.690;2023-03-23T05:49:09;0.97;;;0.80;;
16127;SDS011;8168;49.036;7.690;2023-03-23T05:51:40;0.70;;;0.70;;
16127;SDS011;8168;49.036;7.690;2023-03-23T05:54:11;1.70;;;1.10;;
16127;SDS011;8168;49.036;7.690;2023-03-23T05:56:42;1.47;;;0.90;;
16127;SDS011;8168;49.036;7.690;2023-03-23T05:59:12;1.83;;;1.00;;
16127;SDS011;8168;49.036;7.690;2023-03-23T06:01:43;1.13;;;1.10;;
16127;SDS011;8168;49.036;7.690;2023-03-23T06:04:14;0.80;;;0.80;;
16127;SDS011;8168;49.036;7.690;2023-03-23T06:06:46;3.77;;;1.20;;
16127;SDS011;8168;49.036;7.690;2023-03-23T06:09:17;1.07;;;0.80;;
16127;SDS011;8168;49.036;7.690;2023-03-23T06:11:48;0.73;;;0.70;;
16127;SDS011;8168;49.036;7.690;2023-03-23T06:14:19;2.00;;;0.90;;
16127;SDS011;8168;49.036;7.690;2023-03-23T06:16:51;1.10;;;0.90;;
16127;SDS011;8168;49.036;7.690;2023-03-23T06:19:22;0.80;;;0.80;;
16127;SDS011;8168;49.036;7.690;2023-03-23T06:21:55;2.30;;;1.10;;
16127;SDS011;8168;49.036;7.690;2023-03-23T06:24:26;0.83;;;0.83;;
16127;SDS011;8168;49.036;7.690;2023-03-23T06:26:57;1.57;;;1.10;;
16127;SDS011;8168;49.036;7.690;2023-03-23T06:29:28;1.10;;;0.90;;
16127;SDS011;8168;49.036;7.690;2023-03-23T06:32:00;3.00;;;0.83;;
16127;SDS011;8168;49.036;7.690;2023-03-23T06:34:35;1.77;;;1.13;;
16127;SDS011;8168;49.036;7.690;2023-03-23T06:37:06;1.17;;;0.93;;
16127;SDS011;8168;49.036;7.690;2023-03-23T06:39:37;1.20;;;1.10;;
16127;SDS011;8168;49.036;7.690;2023-03-23T06:42:09;0.80;;;0.80;;
16127;SDS011;8168;49.036;7.690;2023-03-23T06:44:41;2.47;;;1.30;;
16127;SDS011;8168;49.036;7.690;2023-03-23T06:47:12;0.73;;;0.73;;
16127;SDS011;8168;49.036;7.690;2023-03-23T06:49:43;1.20;;;0.93;;
16127;SDS011;8168;49.036;7.690;2023-03-23T06:52:13;0.77;;;0.63;;
16127;SDS011;8168;49.036;7.690;2023-03-23T06:54:44;1.30;;;1.20;;
16127;SDS011;8168;49.036;7.690;2023-03-23T06:57:15;1.10;;;1.00;;
16127;SDS011;8168;49.036;7.690;2023-03-23T06:59:46;1.63;;;1.23;;
16127;SDS011;8168;49.036;7.690;2023-03-23T07:02:17;1.70;;;1.20;;
16127;SDS011;8168;49.036;7.690;2023-03-23T07:04:48;1.57;;;1.07;;
16127;SDS011;8168;49.036;7.690;2023-03-23T07:07:19;2.47;;;1.43;;
16127;SDS011;8168;49.036;7.690;2023-03-23T07:09:49;2.00;;;1.40;;
16127;SDS011;8168;49.036;7.690;2023-03-23T07:12:20;2.03;;;1.33;;
16127;SDS011;8168;49.036;7.690;2023-03-23T07:14:52;1.30;;;1.20;;
16127;SDS011;8168;49.036;7.690;2023-03-23T07:17:23;2.20;;;1.20;;
16127;SDS011;8168;49.036;7.690;2023-03-23T07:19:53;2.33;;;1.30;;
16127;SDS011;8168;49.036;7.690;2023-03-23T07:22:24;2.27;;;1.60;;
16127;SDS011;8168;49.036;7.690;2023-03-23T07:24:55;2.07;;;1.40;;
16127;SDS011;8168;49.036;7.690;2023-03-23T07:27:26;2.20;;;1.70;;
16127;SDS011;8168;49.036;7.690;2023-03-23T07:29:56;2.47;;;1.27;;
16127;SDS011;8168;49.036;7.690;2023-03-23T07:32:27;1.27;;;1.17;;
16127;SDS011;8168;49.036;7.690;2023-03-23T07:34:58;1.80;;;1.20;;
16127;SDS011;8168;49.036;7.690;2023-03-23T07:37:29;1.67;;;1.20;;
16127;SDS011;8168;49.036;7.690;2023-03-23T07:40:00;1.20;;;1.00;;
16127;SDS011;8168;49.036;7.690;2023-03-23T07:42:37;1.17;;;1.07;;
16127;SDS011;8168;49.036;7.690;2023-03-23T07:45:08;2.23;;;1.30;;
16127;SDS011;8168;49.036;7.690;2023-03-23T07:47:43;1.67;;;1.37;;
16127;SDS011;8168;49.036;7.690;2023-03-23T07:50:13;4.47;;;1.10;;
16127;SDS011;8168;49.036;7.690;2023-03-23T07:52:44;1.50;;;1.03;;
16127;SDS011;8168;49.036;7.690;2023-03-23T07:55:15;1.33;;;1.10;;
16127;SDS011;8168;49.036;7.690;2023-03-23T07:57:49;1.00;;;0.90;;
16127;SDS011;8168;49.036;7.690;2023-03-23T08:00:20;2.23;;;1.00;;
16127;SDS011;8168;49.036;7.690;2023-03-23T08:02:54;1.47;;;1.30;;
16127;SDS011;8168;49.036;7.690;2023-03-23T08:05:27;2.40;;;1.27;;
16127;SDS011;8168;49.036;7.690;2023-03-23T08:07:58;1.30;;;1.20;;
16127;SDS011;8168;49.036;7.690;2023-03-23T08:10:29;1.33;;;1.23;;
16127;SDS011;8168;49.036;7.690;2023-03-23T08:13:01;1.33;;;1.23;;
16127;SDS011;8168;49.036;7.690;2023-03-23T08:15:31;1.67;;;1.27;;
16127;SDS011;8168;49.036;7.690;2023-03-23T08:18:07;2.43;;;1.30;;
16127;SDS011;8168;49.036;7.690;2023-03-23T08:20:38;1.37;;;1.27;;
16127;SDS011;8168;49.036;7.690;2023-03-23T08:23:08;3.23;;;1.40;;
16127;SDS011;8168;49.036;7.690;2023-03-23T08:25:39;1.47;;;1.37;;
16127;SDS011;8168;49.036;7.690;2023-03-23T08:28:09;1.43;;;1.33;;
16127;SDS011;8168;49.036;7.690;2023-03-23T08:30:40;1.70;;;1.60;;
16127;SDS011;8168;49.036;7.690;2023-03-23T08:33:11;1.87;;;1.70;;
16127;SDS011;8168;49.036;7.690;2023-03-23T08:35:44;1.50;;;1.40;;
16127;SDS011;8168;49.036;7.690;2023-03-23T08:38:14;1.60;;;1.50;;
16127;SDS011;8168;49.036;7.690;2023-03-23T08:40:45;1.57;;;1.47;;
16127;SDS011;8168;49.036;7.690;2023-03-23T08:43:16;2.10;;;1.50;;
16127;SDS011;8168;49.036;7.690;2023-03-23T08:45:47;1.77;;;1.67;;
16127;SDS011;8168;49.036;7.690;2023-03-23T08:48:20;1.70;;;1.43;;
16127;SDS011;8168;49.036;7.690;2023-03-23T08:50:52;3.17;;;1.47;;
16127;SDS011;8168;49.036;7.690;2023-03-23T08:53:23;2.23;;;1.43;;
16127;SDS011;8168;49.036;7.690;2023-03-23T08:55:53;3.90;;;2.00;;
16127;SDS011;8168;49.036;7.690;2023-03-23T08:58:25;1.60;;;1.47;;
16127;SDS011;8168;49.036;7.690;2023-03-23T09:00:56;1.10;;;1.03;;
16127;SDS011;8168;49.036;7.690;2023-03-23T09:03:26;1.97;;;1.67;;
16127;SDS011;8168;49.036;7.690;2023-03-23T09:06:02;1.30;;;1.20;;
16127;SDS011;8168;49.036;7.690;2023-03-23T09:08:36;2.03;;;1.60;;
16127;SDS011;8168;49.036;7.690;2023-03-23T09:11:08;3.17;;;1.80;;
16127;SDS011;8168;49.036;7.690;2023-03-23T09:13:39;2.27;;;1.30;;
16127;SDS011;8168;49.036;7.690;2023-03-23T09:16:11;2.23;;;1.30;;
16127;SDS011;8168;49.036;7.690;2023-03-23T09:18:41;1.93;;;1.67;;
16127;SDS011;8168;49.036;7.690;2023-03-23T09:21:12;1.90;;;1.70;;
16127;SDS011;8168;49.036;7.690;2023-03-23T09:23:43;3.10;;;2.00;;
16127;SDS011;8168;49.036;7.690;2023-03-23T09:26:14;2.53;;;2.03;;
16127;SDS011;8168;49.036;7.690;2023-03-23T09:28:45;3.10;;;1.97;;
16127;SDS011;8168;49.036;7.690;2023-03-23T09:31:16;1.90;;;1.70;;
16127;SDS011;8168;49.036;7.690;2023-03-23T09:33:46;3.73;;;2.30;;
16127;SDS011;8168;49.036;7.690;2023-03-23T09:36:21;3.33;;;1.70;;
16127;SDS011;8168;49.036;7.690;2023-03-23T09:38:52;2.27;;;2.07;;
16127;SDS011;8168;49.036;7.690;2023-03-23T09:50:07;2.00;;;1.47;;
16127;SDS011;8168;49.036;7.690;2023-03-23T09:52:57;1.57;;;1.47;;
16127;SDS011;8168;49.036;7.690;2023-03-23T09:55:30;1.37;;;1.23;;
16127;SDS011;8168;49.036;7.690;2023-03-23T09:58:09;0.90;;;0.90;;
16127;SDS011;8168;49.036;7.690;2023-03-23T10:03:40;1.53;;;1.43;;
16127;SDS011;8168;49.036;7.690;2023-03-23T10:06:14;2.27;;;1.60;;
16127;SDS011;8168;49.036;7.690;2023-03-23T10:08:50;1.60;;;1.50;;
16127;SDS011;8168;49.036;7.690;2023-03-23T10:14:31;2.73;;;1.83;;
16127;SDS011;8168;49.036;7.690;2023-03-23T10:19:52;1.80;;;1.60;;
16127;SDS011;8168;49.036;7.690;2023-03-23T10:22:52;1.43;;;1.23;;
16127;SDS011;8168;49.036;7.690;2023-03-23T10:25:55;1.83;;;1.30;;
16127;SDS011;8168;49.036;7.690;2023-03-23T10:28:51;2.63;;;1.47;;
16127;SDS011;8168;49.036;7.690;2023-03-23T10:31:28;1.20;;;1.10;;
16127;SDS011;8168;49.036;7.690;2023-03-23T10:34:04;2.20;;;1.60;;
16127;SDS011;8168;49.036;7.690;2023-03-23T10:36:51;1.40;;;1.30;;
16127;SDS011;8168;49.036;7.690;2023-03-23T10:39:29;1.47;;;1.37;;
16127;SDS011;8168;49.036;7.690;2023-03-23T10:42:08;1.27;;;1.17;;
16127;SDS011;8168;49.036;7.690;2023-03-23T10:44:39;1.93;;;1.40;;
16127;SDS011;8168;49.036;7.690;2023-03-23T10:47:09;1.80;;;1.20;;
16127;SDS011;8168;49.036;7.690;2023-03-23T10:49:42;2.73;;;1.73;;
16127;SDS011;8168;49.036;7.690;2023-03-23T10:52:28;1.60;;;1.43;;
16127;SDS011;8168;49.036;7.690;2023-03-23T10:55:09;2.50;;;1.30;;
16127;SDS011;8168;49.036;7.690;2023-03-23T10:57:44;1.77;;;1.57;;
16127;SDS011;8168;49.036;7.690;2023-03-23T11:00:18;1.30;;;1.10;;
16127;SDS011;8168;49.036;7.690;2023-03-23T11:08:11;2.60;;;1.30;;
16127;SDS011;8168;49.036;7.690;2023-03-23T11:10:50;2.70;;;1.53;;
16127;SDS011;8168;49.036;7.690;2023-03-23T11:13:28;1.33;;;1.23;;
16127;SDS011;8168;49.036;7.690;2023-03-23T11:16:01;0.90;;;0.83;;
16127;SDS011;8168;49.036;7.690;2023-03-23T11:18:39;1.50;;;1.40;;
16127;SDS011;8168;49.036;7.690;2023-03-23T11:21:12;2.47;;;1.20;;
16127;SDS011;8168;49.036;7.690;2023-03-23T11:23:47;1.60;;;1.47;;
16127;SDS011;8168;49.036;7.690;2023-03-23T11:26:22;2.83;;;1.60;;
16127;SDS011;8168;49.036;7.690;2023-03-23T11:29:16;1.47;;;1.37;;
16127;SDS011;8168;49.036;7.690;2023-03-23T11:31:54;2.13;;;1.53;;
16127;SDS011;8168;49.036;7.690;2023-03-23T11:56:42;1.97;;;1.57;;
16127;SDS011;8168;49.036;7.690;2023-03-23T11:59:25;3.30;;;1.93;;
16127;SDS011;8168;49.036;7.690;2023-03-23T12:10:35;2.87;;;1.80;;
16127;SDS011;8168;49.036;7.690;2023-03-23T12:22:00;2.17;;;1.73;;
16127;SDS011;8168;49.036;7.690;2023-03-23T12:24:38;2.97;;;2.20;;
16127;SDS011;8168;49.036;7.690;2023-03-23T12:27:42;2.03;;;1.73;;
16127;SDS011;8168;49.036;7.690;2023-03-23T12:36:08;2.57;;;1.47;;
16127;SDS011;8168;49.036;7.690;2023-03-23T12:44:20;1.77;;;1.57;;
16127;SDS011;8168;49.036;7.690;2023-03-23T12:53:02;2.23;;;1.50;;
16127;SDS011;8168;49.036;7.690;2023-03-23T12:55:40;3.43;;;1.47;;
16127;SDS011;8168;49.036;7.690;2023-03-23T12:58:27;3.07;;;1.37;;
16127;SDS011;8168;49.036;7.690;2023-03-23T13:06:33;3.17;;;1.60;;
16127;SDS011;8168;49.036;7.690;2023-03-23T13:11:47;2.40;;;1.97;;
16127;SDS011;8168;49.036;7.690;2023-03-23T13:14:31;2.17;;;1.70;;
16127;SDS011;8168;49.036;7.690;2023-03-23T13:22:55;1.80;;;1.30;;
16127;SDS011;8168;49.036;7.690;2023-03-23T13:25:36;2.03;;;1.60;;
16127;SDS011;8168;49.036;7.690;2023-03-23T13:28:30;1.80;;;1.53;;
16127;SDS011;8168;49.036;7.690;2023-03-23T13:31:22;1.80;;;1.50;;
16127;SDS011;8168;49.036;7.690;2023-03-23T13:39:29;1.57;;;1.47;;
16127;SDS011;8168;49.036;7.690;2023-03-23T13:50:48;1.87;;;1.50;;
16127;SDS011;8168;49.036;7.690;2023-03-23T13:53:00;1.97;;;1.70;;
16127;SDS011;8168;49.036;7.690;2023-03-23T13:55:48;2.67;;;1.77;;
16127;SDS011;8168;49.036;7.690;2023-03-23T13:58:21;2.77;;;2.30;;
16127;SDS011;8168;49.036;7.690;2023-03-23T14:01:02;2.03;;;1.87;;
16127;SDS011;8168;49.036;7.690;2023-03-23T14:03:50;2.20;;;1.30;;
16127;SDS011;8168;49.036;7.690;2023-03-23T14:06:24;1.90;;;1.53;;
16127;SDS011;8168;49.036;7.690;2023-03-23T14:08:55;2.47;;;1.57;;
16127;SDS011;8168;49.036;7.690;2023-03-23T14:11:29;1.63;;;1.40;;
16127;SDS011;8168;49.036;7.690;2023-03-23T14:14:05;1.90;;;1.70;;
16127;SDS011;8168;49.036;7.690;2023-03-23T14:16:43;2.47;;;1.93;;
16127;SDS011;8168;49.036;7.690;2023-03-23T14:19:17;2.83;;;2.03;;
16127;SDS011;8168;49.036;7.690;2023-03-23T14:21:55;1.70;;;1.47;;
16127;SDS011;8168;49.036;7.690;2023-03-23T14:24:45;2.27;;;1.63;;
16127;SDS011;8168;49.036;7.690;2023-03-23T14:27:19;1.80;;;1.53;;
16127;SDS011;8168;49.036;7.690;2023-03-23T14:30:01;2.20;;;1.53;;
16127;SDS011;8168;49.036;7.690;2023-03-23T14:32:36;2.77;;;2.00;;
16127;SDS011;8168;49.036;7.690;2023-03-23T14:35:15;2.00;;;1.77;;
16127;SDS011;8168;49.036;7.690;2023-03-23T14:37:47;2.10;;;1.40;;
16127;SDS011;8168;49.036;7.690;2023-03-23T14:40:19;1.43;;;1.33;;
16127;SDS011;8168;49.036;7.690;2023-03-23T14:42:50;1.47;;;1.37;;
16127;SDS011;8168;49.036;7.690;2023-03-23T14:45:21;2.67;;;1.97;;
16127;SDS011;8168;49.036;7.690;2023-03-23T14:48:12;3.90;;;1.90;;
16127;SDS011;8168;49.036;7.690;2023-03-23T14:50:50;4.13;;;1.80;;
16127;SDS011;8168;49.036;7.690;2023-03-23T14:53:29;1.80;;;1.70;;
16127;SDS011;8168;49.036;7.690;2023-03-23T14:56:11;2.20;;;1.63;;
16127;SDS011;8168;49.036;7.690;2023-03-23T14:58:46;2.53;;;1.80;;
16127;SDS011;8168;49.036;7.690;2023-03-23T15:01:21;3.80;;;2.83;;
16127;SDS011;8168;49.036;7.690;2023-03-23T15:07:01;1.83;;;1.40;;
16127;SDS011;8168;49.036;7.690;2023-03-23T15:09:33;2.87;;;2.33;;
16127;SDS011;8168;49.036;7.690;2023-03-23T15:12:12;6.97;;;4.70;;
16127;SDS011;8168;49.036;7.690;2023-03-23T15:15:03;7.37;;;4.43;;
16127;SDS011;8168;49.036;7.690;2023-03-23T15:17:36;5.73;;;3.90;;
16127;SDS011;8168;49.036;7.690;2023-03-23T15:20:19;2.13;;;1.70;;
16127;SDS011;8168;49.036;7.690;2023-03-23T15:22:51;2.53;;;2.33;;
16127;SDS011;8168;49.036;7.690;2023-03-23T15:25:30;4.40;;;2.30;;
16127;SDS011;8168;49.036;7.690;2023-03-23T15:30:46;3.37;;;2.00;;
16127;SDS011;8168;49.036;7.690;2023-03-23T15:33:22;1.70;;;1.50;;
16127;SDS011;8168;49.036;7.690;2023-03-23T15:35:57;5.47;;;2.20;;
16127;SDS011;8168;49.036;7.690;2023-03-23T15:38:31;3.77;;;2.20;;
16127;SDS011;8168;49.036;7.690;2023-03-23T15:41:17;5.37;;;2.23;;
16127;SDS011;8168;49.036;7.690;2023-03-23T15:43:56;2.43;;;1.80;;
16127;SDS011;8168;49.036;7.690;2023-03-23T15:46:29;4.43;;;1.70;;
16127;SDS011;8168;49.036;7.690;2023-03-23T15:51:31;2.80;;;2.10;;
16127;SDS011;8168;49.036;7.690;2023-03-23T15:54:02;2.23;;;1.77;;
16127;SDS011;8168;49.036;7.690;2023-03-23T15:56:35;2.57;;;1.70;;
16127;SDS011;8168;49.036;7.690;2023-03-23T15:59:07;1.80;;;1.70;;
16127;SDS011;8168;49.036;7.690;2023-03-23T16:01:39;1.90;;;1.63;;
16127;SDS011;8168;49.036;7.690;2023-03-23T16:04:12;2.20;;;2.00;;
16127;SDS011;8168;49.036;7.690;2023-03-23T16:06:46;2.00;;;1.77;;
16127;SDS011;8168;49.036;7.690;2023-03-23T16:09:18;2.27;;;1.90;;
16127;SDS011;8168;49.036;7.690;2023-03-23T16:11:49;1.77;;;1.67;;
16127;SDS011;8168;49.036;7.690;2023-03-23T16:14:20;2.07;;;1.77;;
16127;SDS011;8168;49.036;7.690;2023-03-23T16:16:50;1.67;;;1.53;;
16127;SDS011;8168;49.036;7.690;2023-03-23T16:19:24;2.10;;;2.00;;
16127;SDS011;8168;49.036;7.690;2023-03-23T16:21:54;2.20;;;1.63;;
16127;SDS011;8168;49.036;7.690;2023-03-23T16:24:25;4.07;;;3.77;;
16127;SDS011;8168;49.036;7.690;2023-03-23T16:26:55;2.10;;;1.90;;
16127;SDS011;8168;49.036;7.690;2023-03-23T16:29:26;1.53;;;1.43;;
16127;SDS011;8168;49.036;7.690;2023-03-23T16:31:57;3.40;;;1.90;;
16127;SDS011;8168;49.036;7.690;2023-03-23T16:34:27;2.93;;;2.37;;
16127;SDS011;8168;49.036;7.690;2023-03-23T16:37:01;2.20;;;1.77;;
16127;SDS011;8168;49.036;7.690;2023-03-23T16:39:32;2.27;;;2.00;;
16127;SDS011;8168;49.036;7.690;2023-03-23T16:42:03;3.17;;;1.93;;
16127;SDS011;8168;49.036;7.690;2023-03-23T16:44:33;2.00;;;1.60;;
16127;SDS011;8168;49.036;7.690;2023-03-23T16:47:04;2.17;;;1.60;;
16127;SDS011;8168;49.036;7.690;2023-03-23T16:49:37;5.93;;;1.87;;
16127;SDS011;8168;49.036;7.690;2023-03-23T16:52:08;5.37;;;2.00;;
16127;SDS011;8168;49.036;7.690;2023-03-23T16:54:42;2.87;;;1.73;;
16127;SDS011;8168;49.036;7.690;2023-03-23T16:57:12;2.77;;;2.10;;
16127;SDS011;8168;49.036;7.690;2023-03-23T16:59:43;3.63;;;2.83;;
16127;SDS011;8168;49.036;7.690;2023-03-23T17:02:14;2.73;;;2.50;;
16127;SDS011;8168;49.036;7.690;2023-03-23T17:04:45;4.10;;;3.00;;
16127;SDS011;8168;49.036;7.690;2023-03-23T17:07:15;4.97;;;3.23;;
16127;SDS011;8168;49.036;7.690;2023-03-23T17:09:46;3.47;;;2.80;;
16127;SDS011;8168;49.036;7.690;2023-03-23T17:12:17;4.50;;;3.10;;
16127;SDS011;8168;49.036;7.690;2023-03-23T17:14:47;3.23;;;2.50;;
16127;SDS011;8168;49.036;7.690;2023-03-23T17:17:18;4.40;;;3.27;;
16127;SDS011;8168;49.036;7.690;2023-03-23T17:19:49;4.20;;;2.40;;
16127;SDS011;8168;49.036;7.690;2023-03-23T17:22:20;4.87;;;3.37;;
16127;SDS011;8168;49.036;7.690;2023-03-23T17:24:51;3.97;;;2.93;;
16127;SDS011;8168;49.036;7.690;2023-03-23T17:27:22;4.73;;;4.23;;
16127;SDS011;8168;49.036;7.690;2023-03-23T17:29:54;3.97;;;2.87;;
16127;SDS011;8168;49.036;7.690;2023-03-23T17:32:25;1.90;;;1.70;;
16127;SDS011;8168;49.036;7.690;2023-03-23T17:34:56;2.57;;;2.37;;
16127;SDS011;8168;49.036;7.690;2023-03-23T17:37:26;2.63;;;2.03;;
16127;SDS011;8168;49.036;7.690;2023-03-23T17:39:57;2.27;;;2.03;;
16127;SDS011;8168;49.036;7.690;2023-03-23T17:42:28;1.93;;;1.60;;
16127;SDS011;8168;49.036;7.690;2023-03-23T17:44:58;2.20;;;1.30;;
16127;SDS011;8168;49.036;7.690;2023-03-23T17:47:29;1.50;;;1.40;;